sensor_id;sensor_type;location;lat;lon;timestamp;temperature;humidity
6244;DHT22;3155;49.940;8.450;2023-03-23T00:01:47;13.20;99.90
6244;DHT22;3155;49.940;8.450;2023-03-23T00:04:16;13.20;99.90
6244;DHT22;3155;49.940;8.450;2023-03-23T00:06:41;13.20;99.90
6244;DHT22;3155;49.940;8.450;2023-03-23T00:09:09;13.20;99.90
6244;DHT22;3155;49.940;8.450;2023-03-23T00:11:35;13.20;99.90
6244;DHT22;3155;49.940;8.450;2023-03-23T00:14:01;13.10;99.90
6244;DHT22;3155;49.940;8.450;2023-03-23T00:16:29;13.10;99.90
6244;DHT22;3155;49.940;8.450;2023-03-23T00:19:01;13.10;99.90
6244;DHT22;3155;49.940;8.450;2023-03-23T00:21:38;13.10;99.90
6244;DHT22;3155;49.940;8.450;2023-03-23T00:24:17;13.00;99.90
6244;DHT22;3155;49.940;8.450;2023-03-23T00:26:48;13.00;99.90
6244;DHT22;3155;49.940;8.450;2023-03-23T00:29:17;13.00;99.90
6244;DHT22;3155;49.940;8.450;2023-03-23T00:31:45;12.90;99.90
6244;DHT22;3155;49.940;8.450;2023-03-23T00:34:16;12.90;99.90
6244;DHT22;3155;49.940;8.450;2023-03-23T00:36:50;12.90;99.90
6244;DHT22;3155;49.940;8.450;2023-03-23T00:39:17;12.90;99.90
6244;DHT22;3155;49.940;8.450;2023-03-23T00:41:43;12.80;99.90
6244;DHT22;3155;49.940;8.450;2023-03-23T00:44:09;12.80;99.90
6244;DHT22;3155;49.940;8.450;2023-03-23T00:46:35;12.80;99.90
6244;DHT22;3155;49.940;8.450;2023-03-23T00:49:11;12.70;99.90
6244;DHT22;3155;49.940;8.450;2023-03-23T00:51:38;12.70;99.90
6244;DHT22;3155;49.940;8.450;2023-03-23T00:54:04;12.70;99.90
6244;DHT22;3155;49.940;8.450;2023-03-23T00:56:30;12.60;99.90
6244;DHT22;3155;49.940;8.450;2023-03-23T00:58:56;12.60;99.90
6244;DHT22;3155;49.940;8.450;2023-03-23T01:01:21;12.60;99.90
6244;DHT22;3155;49.940;8.450;2023-03-23T01:03:47;12.50;99.90
6244;DHT22;3155;49.940;8.450;2023-03-23T01:06:16;12.40;99.90
6244;DHT22;3155;49.940;8.450;2023-03-23T01:08:42;12.40;99.90
6244;DHT22;3155;49.940;8.450;2023-03-23T01:11:14;12.40;99.90
6244;DHT22;3155;49.940;8.450;2023-03-23T01:13:43;12.40;99.90
6244;DHT22;3155;49.940;8.450;2023-03-23T01:16:10;12.40;99.90
6244;DHT22;3155;49.940;8.450;2023-03-23T01:18:36;12.50;99.90
6244;DHT22;3155;49.940;8.450;2023-03-23T01:21:11;12.60;99.90
6244;DHT22;3155;49.940;8.450;2023-03-23T01:23:37;12.60;99.90
6244;DHT22;3155;49.940;8.450;2023-03-23T01:26:09;12.70;99.90
6244;DHT22;3155;49.940;8.450;2023-03-23T01:28:35;12.80;99.90
6244;DHT22;3155;49.940;8.450;2023-03-23T01:31:05;12.90;99.90
6244;DHT22;3155;49.940;8.450;2023-03-23T01:33:31;12.90;99.90
6244;DHT22;3155;49.940;8.450;2023-03-23T01:35:58;13.00;99.90
6244;DHT22;3155;49.940;8.450;2023-03-23T01:38:24;13.00;99.90
6244;DHT22;3155;49.940;8.450;2023-03-23T01:40:50;13.00;99.90
6244;DHT22;3155;49.940;8.450;2023-03-23T01:43:15;12.90;99.90
6244;DHT22;3155;49.940;8.450;2023-03-23T01:45:41;13.00;99.90
6244;DHT22;3155;49.940;8.450;2023-03-23T01:48:09;13.00;99.90
6244;DHT22;3155;49.940;8.450;2023-03-23T01:50:49;13.00;99.90
6244;DHT22;3155;49.940;8.450;2023-03-23T01:53:19;13.10;99.90
6244;DHT22;3155;49.940;8.450;2023-03-23T01:55:47;13.00;99.90
6244;DHT22;3155;49.940;8.450;2023-03-23T01:58:18;13.00;99.90
6244;DHT22;3155;49.940;8.450;2023-03-23T02:00:45;13.00;99.90
6244;DHT22;3155;49.940;8.450;2023-03-23T02:03:12;13.00;99.90
6244;DHT22;3155;49.940;8.450;2023-03-23T02:05:42;12.90;99.90
6244;DHT22;3155;49.940;8.450;2023-03-23T02:08:09;12.90;99.90
6244;DHT22;3155;49.940;8.450;2023-03-23T02:10:36;12.90;99.90
6244;DHT22;3155;49.940;8.450;2023-03-23T02:13:05;12.90;99.90
6244;DHT22;3155;49.940;8.450;2023-03-23T02:15:46;12.80;99.90
6244;DHT22;3155;49.940;8.450;2023-03-23T02:18:22;12.90;99.90
6244;DHT22;3155;49.940;8.450;2023-03-23T02:23:52;12.90;99.90
6244;DHT22;3155;49.940;8.450;2023-03-23T02:26:25;12.90;99.90
6244;DHT22;3155;49.940;8.450;2023-03-23T02:34:42;12.80;99.90
6244;DHT22;3155;49.940;8.450;2023-03-23T02:40:30;12.70;99.90
6244;DHT22;3155;49.940;8.450;2023-03-23T02:42:57;12.70;99.90
6244;DHT22;3155;49.940;8.450;2023-03-23T02:45:27;12.60;99.90
6244;DHT22;3155;49.940;8.450;2023-03-23T02:47:54;12.50;99.90
6244;DHT22;3155;49.940;8.450;2023-03-23T02:50:25;12.40;99.90
6244;DHT22;3155;49.940;8.450;2023-03-23T02:52:54;12.10;99.90
6244;DHT22;3155;49.940;8.450;2023-03-23T02:55:21;11.90;99.90
6244;DHT22;3155;49.940;8.450;2023-03-23T02:57:54;11.70;99.90
6244;DHT22;3155;49.940;8.450;2023-03-23T03:00:21;11.50;99.90
6244;DHT22;3155;49.940;8.450;2023-03-23T03:02:51;11.40;99.90
6244;DHT22;3155;49.940;8.450;2023-03-23T03:08:18;11.20;99.90
6244;DHT22;3155;49.940;8.450;2023-03-23T03:10:56;11.10;99.90
6244;DHT22;3155;49.940;8.450;2023-03-23T03:14:10;11.10;99.90
6244;DHT22;3155;49.940;8.450;2023-03-23T03:17:06;11.20;99.90
6244;DHT22;3155;49.940;8.450;2023-03-23T03:19:37;11.40;99.90
6244;DHT22;3155;49.940;8.450;2023-03-23T03:22:06;11.50;99.90
6244;DHT22;3155;49.940;8.450;2023-03-23T03:24:33;11.50;99.90
6244;DHT22;3155;49.940;8.450;2023-03-23T03:27:04;11.50;99.90
6244;DHT22;3155;49.940;8.450;2023-03-23T03:29:36;11.50;99.90
6244;DHT22;3155;49.940;8.450;2023-03-23T03:32:06;11.50;99.90
6244;DHT22;3155;49.940;8.450;2023-03-23T03:34:33;11.50;99.90
6244;DHT22;3155;49.940;8.450;2023-03-23T03:37:00;11.50;99.90
6244;DHT22;3155;49.940;8.450;2023-03-23T03:39:27;11.50;99.90
6244;DHT22;3155;49.940;8.450;2023-03-23T03:41:53;11.50;99.90
6244;DHT22;3155;49.940;8.450;2023-03-23T03:44:20;11.50;99.90
6244;DHT22;3155;49.940;8.450;2023-03-23T03:46:45;11.40;99.90
6244;DHT22;3155;49.940;8.450;2023-03-23T03:49:11;11.30;99.90
6244;DHT22;3155;49.940;8.450;2023-03-23T03:51:38;11.20;99.90
6244;DHT22;3155;49.940;8.450;2023-03-23T03:54:04;11.10;99.90
6244;DHT22;3155;49.940;8.450;2023-03-23T03:56:30;11.00;99.90
6244;DHT22;3155;49.940;8.450;2023-03-23T04:06:17;10.80;99.90
6244;DHT22;3155;49.940;8.450;2023-03-23T04:08:47;10.50;99.90
6244;DHT22;3155;49.940;8.450;2023-03-23T04:11:14;10.50;99.90
6244;DHT22;3155;49.940;8.450;2023-03-23T04:13:40;10.60;99.90
6244;DHT22;3155;49.940;8.450;2023-03-23T04:16:06;10.70;99.90
6244;DHT22;3155;49.940;8.450;2023-03-23T04:18:33;10.60;99.90
6244;DHT22;3155;49.940;8.450;2023-03-23T04:21:00;10.60;99.90
6244;DHT22;3155;49.940;8.450;2023-03-23T04:23:27;10.70;99.90
6244;DHT22;3155;49.940;8.450;2023-03-23T04:25:56;10.80;99.90
6244;DHT22;3155;49.940;8.450;2023-03-23T04:28:24;10.90;99.90
6244;DHT22;3155;49.940;8.450;2023-03-23T04:30:51;11.00;99.90
6244;DHT22;3155;49.940;8.450;2023-03-23T04:33:21;11.10;99.90
6244;DHT22;3155;49.940;8.450;2023-03-23T04:35:47;11.20;99.90
6244;DHT22;3155;49.940;8.450;2023-03-23T04:38:15;11.30;99.90
6244;DHT22;3155;49.940;8.450;2023-03-23T04:40:42;11.30;99.90
6244;DHT22;3155;49.940;8.450;2023-03-23T04:43:09;11.40;99.90
6244;DHT22;3155;49.940;8.450;2023-03-23T04:45:40;11.50;99.90
6244;DHT22;3155;49.940;8.450;2023-03-23T04:48:14;11.60;99.90
6244;DHT22;3155;49.940;8.450;2023-03-23T04:50:40;11.70;99.90
6244;DHT22;3155;49.940;8.450;2023-03-23T04:53:05;11.80;99.90
6244;DHT22;3155;49.940;8.450;2023-03-23T04:55:33;11.80;99.90
6244;DHT22;3155;49.940;8.450;2023-03-23T04:58:11;11.90;99.90
6244;DHT22;3155;49.940;8.450;2023-03-23T05:00:40;11.90;99.90
6244;DHT22;3155;49.940;8.450;2023-03-23T05:03:09;11.90;99.90
6244;DHT22;3155;49.940;8.450;2023-03-23T05:05:35;12.00;99.90
6244;DHT22;3155;49.940;8.450;2023-03-23T05:08:01;12.00;99.90
6244;DHT22;3155;49.940;8.450;2023-03-23T05:10:27;12.10;99.90
6244;DHT22;3155;49.940;8.450;2023-03-23T05:12:56;12.10;99.90
6244;DHT22;3155;49.940;8.450;2023-03-23T05:15:21;12.10;99.90
6244;DHT22;3155;49.940;8.450;2023-03-23T05:17:47;12.20;99.90
6244;DHT22;3155;49.940;8.450;2023-03-23T05:20:16;12.10;99.90
6244;DHT22;3155;49.940;8.450;2023-03-23T05:22:48;12.10;99.90
6244;DHT22;3155;49.940;8.450;2023-03-23T05:25:15;12.10;99.90
6244;DHT22;3155;49.940;8.450;2023-03-23T05:27:45;12.10;99.90
6244;DHT22;3155;49.940;8.450;2023-03-23T05:30:14;12.20;99.90
6244;DHT22;3155;49.940;8.450;2023-03-23T05:32:45;12.20;99.90
6244;DHT22;3155;49.940;8.450;2023-03-23T05:35:11;12.20;99.90
6244;DHT22;3155;49.940;8.450;2023-03-23T05:37:37;12.10;99.90
6244;DHT22;3155;49.940;8.450;2023-03-23T05:40:04;12.00;99.90
6244;DHT22;3155;49.940;8.450;2023-03-23T05:42:33;11.90;99.90
6244;DHT22;3155;49.940;8.450;2023-03-23T05:45:00;11.80;99.90
6244;DHT22;3155;49.940;8.450;2023-03-23T05:47:28;11.70;99.90
6244;DHT22;3155;49.940;8.450;2023-03-23T05:49:53;11.80;99.90
6244;DHT22;3155;49.940;8.450;2023-03-23T05:52:19;11.80;99.90
6244;DHT22;3155;49.940;8.450;2023-03-23T05:54:46;11.80;99.90
6244;DHT22;3155;49.940;8.450;2023-03-23T05:57:12;11.90;99.90
6244;DHT22;3155;49.940;8.450;2023-03-23T05:59:37;11.80;99.90
6244;DHT22;3155;49.940;8.450;2023-03-23T06:02:04;11.80;99.90
6244;DHT22;3155;49.940;8.450;2023-03-23T06:04:29;11.70;99.90
6244;DHT22;3155;49.940;8.450;2023-03-23T06:06:55;11.60;99.90
6244;DHT22;3155;49.940;8.450;2023-03-23T06:09:21;11.60;99.90
6244;DHT22;3155;49.940;8.450;2023-03-23T06:11:49;11.60;99.90
6244;DHT22;3155;49.940;8.450;2023-03-23T06:14:14;11.70;99.90
6244;DHT22;3155;49.940;8.450;2023-03-23T06:16:41;11.70;99.90
6244;DHT22;3155;49.940;8.450;2023-03-23T06:19:07;11.70;99.90
6244;DHT22;3155;49.940;8.450;2023-03-23T06:21:36;11.70;99.90
6244;DHT22;3155;49.940;8.450;2023-03-23T06:24:02;11.70;99.90
6244;DHT22;3155;49.940;8.450;2023-03-23T06:26:33;11.70;99.90
6244;DHT22;3155;49.940;8.450;2023-03-23T06:28:59;11.80;99.90
6244;DHT22;3155;49.940;8.450;2023-03-23T06:31:26;11.80;99.90
6244;DHT22;3155;49.940;8.450;2023-03-23T06:33:52;11.80;99.90
6244;DHT22;3155;49.940;8.450;2023-03-23T06:36:18;11.80;99.90
6244;DHT22;3155;49.940;8.450;2023-03-23T06:38:45;11.80;99.90
6244;DHT22;3155;49.940;8.450;2023-03-23T06:41:11;11.80;99.90
6244;DHT22;3155;49.940;8.450;2023-03-23T06:43:40;11.80;99.90
6244;DHT22;3155;49.940;8.450;2023-03-23T06:46:06;11.80;99.90
6244;DHT22;3155;49.940;8.450;2023-03-23T06:48:32;11.70;99.90
6244;DHT22;3155;49.940;8.450;2023-03-23T06:51:01;11.70;99.90
6244;DHT22;3155;49.940;8.450;2023-03-23T06:53:27;11.70;99.90
6244;DHT22;3155;49.940;8.450;2023-03-23T06:55:59;11.60;99.90
6244;DHT22;3155;49.940;8.450;2023-03-23T06:58:27;11.70;99.90
6244;DHT22;3155;49.940;8.450;2023-03-23T07:00:59;11.80;99.90
6244;DHT22;3155;49.940;8.450;2023-03-23T07:03:26;11.90;99.90
6244;DHT22;3155;49.940;8.450;2023-03-23T07:05:53;11.80;99.90
6244;DHT22;3155;49.940;8.450;2023-03-23T07:08:20;11.80;99.90
6244;DHT22;3155;49.940;8.450;2023-03-23T07:10:46;11.80;99.90
6244;DHT22;3155;49.940;8.450;2023-03-23T07:13:12;11.90;99.90
6244;DHT22;3155;49.940;8.450;2023-03-23T07:15:41;11.90;99.90
6244;DHT22;3155;49.940;8.450;2023-03-23T07:18:10;11.90;99.90
6244;DHT22;3155;49.940;8.450;2023-03-23T07:20:39;11.90;99.90
6244;DHT22;3155;49.940;8.450;2023-03-23T07:23:05;12.00;99.90
6244;DHT22;3155;49.940;8.450;2023-03-23T07:25:32;12.00;99.90
6244;DHT22;3155;49.940;8.450;2023-03-23T07:27:59;12.00;99.90
6244;DHT22;3155;49.940;8.450;2023-03-23T07:30:29;12.00;99.90
6244;DHT22;3155;49.940;8.450;2023-03-23T07:32:56;12.00;99.90
6244;DHT22;3155;49.940;8.450;2023-03-23T07:35:22;12.00;99.90
6244;DHT22;3155;49.940;8.450;2023-03-23T07:37:48;12.00;99.90
6244;DHT22;3155;49.940;8.450;2023-03-23T07:40:17;12.00;99.90
6244;DHT22;3155;49.940;8.450;2023-03-23T07:42:45;12.00;99.90
6244;DHT22;3155;49.940;8.450;2023-03-23T07:45:12;12.10;99.90
6244;DHT22;3155;49.940;8.450;2023-03-23T07:47:38;12.10;99.90
6244;DHT22;3155;49.940;8.450;2023-03-23T07:50:11;12.20;99.90
6244;DHT22;3155;49.940;8.450;2023-03-23T07:52:39;12.40;99.90
6244;DHT22;3155;49.940;8.450;2023-03-23T07:55:09;12.40;99.90
6244;DHT22;3155;49.940;8.450;2023-03-23T07:57:48;12.50;99.90
6244;DHT22;3155;49.940;8.450;2023-03-23T08:00:15;12.60;99.90
